sensor_id;sensor_type;location;lat;lon;timestamp;P1;durP1;ratioP1;P2;durP2;ratioP2
5867;SDS011;2960;49.142;7.768;2022-08-01T00:02:19;11.30;;;4.67;;
5867;SDS011;2960;49.142;7.768;2022-08-01T00:04:46;11.43;;;4.40;;
5867;SDS011;2960;49.142;7.768;2022-08-01T00:07:13;11.47;;;4.60;;
5867;SDS011;2960;49.142;7.768;2022-08-01T00:09:41;11.60;;;4.90;;
5867;SDS011;2960;49.142;7.768;2022-08-01T00:12:09;12.10;;;4.70;;
5867;SDS011;2960;49.142;7.768;2022-08-01T00:14:36;11.30;;;4.40;;
5867;SDS011;2960;49.142;7.768;2022-08-01T00:17:03;11.47;;;4.67;;
5867;SDS011;2960;49.142;7.768;2022-08-01T00:19:31;11.90;;;5.03;;
5867;SDS011;2960;49.142;7.768;2022-08-01T00:21:59;11.27;;;4.30;;
5867;SDS011;2960;49.142;7.768;2022-08-01T00:24:26;11.53;;;4.20;;
5867;SDS011;2960;49.142;7.768;2022-08-01T00:26:53;11.80;;;4.60;;
5867;SDS011;2960;49.142;7.768;2022-08-01T00:29:22;11.23;;;4.40;;
5867;SDS011;2960;49.142;7.768;2022-08-01T00:31:49;11.30;;;4.40;;
5867;SDS011;2960;49.142;7.768;2022-08-01T00:34:16;11.40;;;4.67;;
5867;SDS011;2960;49.142;7.768;2022-08-01T00:36:43;11.27;;;4.50;;
5867;SDS011;2960;49.142;7.768;2022-08-01T00:39:11;12.07;;;4.70;;
5867;SDS011;2960;49.142;7.768;2022-08-01T00:41:38;11.47;;;4.40;;
5867;SDS011;2960;49.142;7.768;2022-08-01T00:44:05;11.07;;;4.50;;
5867;SDS011;2960;49.142;7.768;2022-08-01T00:46:34;11.20;;;4.30;;
5867;SDS011;2960;49.142;7.768;2022-08-01T00:49:01;11.50;;;4.50;;
5867;SDS011;2960;49.142;7.768;2022-08-01T00:51:28;11.30;;;4.40;;
5867;SDS011;2960;49.142;7.768;2022-08-01T00:53:59;11.40;;;4.50;;
5867;SDS011;2960;49.142;7.768;2022-08-01T00:56:27;11.60;;;4.50;;
5867;SDS011;2960;49.142;7.768;2022-08-01T00:58:54;11.33;;;4.60;;
5867;SDS011;2960;49.142;7.768;2022-08-01T01:01:22;11.07;;;4.30;;
5867;SDS011;2960;49.142;7.768;2022-08-01T01:03:51;11.27;;;4.30;;
5867;SDS011;2960;49.142;7.768;2022-08-01T01:06:23;11.67;;;4.60;;
5867;SDS011;2960;49.142;7.768;2022-08-01T01:09:04;11.20;;;4.63;;
5867;SDS011;2960;49.142;7.768;2022-08-01T01:11:47;11.90;;;4.80;;
5867;SDS011;2960;49.142;7.768;2022-08-01T01:14:33;11.87;;;5.00;;
5867;SDS011;2960;49.142;7.768;2022-08-01T01:17:09;11.40;;;4.77;;
5867;SDS011;2960;49.142;7.768;2022-08-01T01:19:41;11.30;;;4.70;;
5867;SDS011;2960;49.142;7.768;2022-08-01T01:22:18;14.83;;;5.00;;
5867;SDS011;2960;49.142;7.768;2022-08-01T01:25:10;11.70;;;5.03;;
5867;SDS011;2960;49.142;7.768;2022-08-01T01:27:57;11.80;;;4.80;;
5867;SDS011;2960;49.142;7.768;2022-08-01T01:30:33;11.77;;;4.50;;
5867;SDS011;2960;49.142;7.768;2022-08-01T01:33:03;11.40;;;4.80;;
5867;SDS011;2960;49.142;7.768;2022-08-01T01:35:35;11.20;;;4.47;;
5867;SDS011;2960;49.142;7.768;2022-08-01T01:38:10;11.70;;;5.00;;
5867;SDS011;2960;49.142;7.768;2022-08-01T01:40:41;11.80;;;4.70;;
5867;SDS011;2960;49.142;7.768;2022-08-01T01:43:10;12.10;;;4.90;;
5867;SDS011;2960;49.142;7.768;2022-08-01T01:45:40;11.50;;;5.10;;
5867;SDS011;2960;49.142;7.768;2022-08-01T01:48:12;11.43;;;4.97;;
5867;SDS011;2960;49.142;7.768;2022-08-01T01:50:41;11.27;;;4.77;;
5867;SDS011;2960;49.142;7.768;2022-08-01T01:53:12;12.53;;;4.40;;
5867;SDS011;2960;49.142;7.768;2022-08-01T01:55:43;11.50;;;4.70;;
5867;SDS011;2960;49.142;7.768;2022-08-01T01:58:13;11.40;;;4.70;;
5867;SDS011;2960;49.142;7.768;2022-08-01T02:00:43;11.50;;;4.77;;
5867;SDS011;2960;49.142;7.768;2022-08-01T02:03:12;11.90;;;5.10;;
5867;SDS011;2960;49.142;7.768;2022-08-01T02:05:41;11.10;;;4.50;;
5867;SDS011;2960;49.142;7.768;2022-08-01T02:08:09;11.13;;;4.27;;
5867;SDS011;2960;49.142;7.768;2022-08-01T02:10:38;11.27;;;4.40;;
5867;SDS011;2960;49.142;7.768;2022-08-01T02:13:27;11.80;;;4.90;;
5867;SDS011;2960;49.142;7.768;2022-08-01T02:15:56;11.00;;;4.57;;
5867;SDS011;2960;49.142;7.768;2022-08-01T02:18:23;11.17;;;4.50;;
5867;SDS011;2960;49.142;7.768;2022-08-01T02:20:50;11.43;;;4.70;;
5867;SDS011;2960;49.142;7.768;2022-08-01T02:23:20;11.80;;;4.90;;
5867;SDS011;2960;49.142;7.768;2022-08-01T02:25:52;11.20;;;4.20;;
5867;SDS011;2960;49.142;7.768;2022-08-01T02:28:22;11.77;;;4.73;;
5867;SDS011;2960;49.142;7.768;2022-08-01T02:31:00;11.30;;;4.47;;
5867;SDS011;2960;49.142;7.768;2022-08-01T02:33:33;11.47;;;4.80;;
5867;SDS011;2960;49.142;7.768;2022-08-01T02:36:04;11.17;;;4.20;;
5867;SDS011;2960;49.142;7.768;2022-08-01T02:38:34;11.10;;;4.50;;
5867;SDS011;2960;49.142;7.768;2022-08-01T02:41:07;11.70;;;4.53;;
5867;SDS011;2960;49.142;7.768;2022-08-01T02:43:38;11.17;;;4.23;;
5867;SDS011;2960;49.142;7.768;2022-08-01T02:46:12;11.60;;;4.63;;
5867;SDS011;2960;49.142;7.768;2022-08-01T02:48:46;12.00;;;4.70;;
5867;SDS011;2960;49.142;7.768;2022-08-01T02:51:17;11.30;;;4.50;;
5867;SDS011;2960;49.142;7.768;2022-08-01T02:53:46;11.90;;;4.80;;
5867;SDS011;2960;49.142;7.768;2022-08-01T02:56:14;11.80;;;5.10;;
5867;SDS011;2960;49.142;7.768;2022-08-01T02:58:43;11.07;;;4.53;;
5867;SDS011;2960;49.142;7.768;2022-08-01T03:01:13;11.17;;;4.30;;
5867;SDS011;2960;49.142;7.768;2022-08-01T03:03:43;10.97;;;4.30;;
5867;SDS011;2960;49.142;7.768;2022-08-01T03:06:11;11.30;;;4.53;;
5867;SDS011;2960;49.142;7.768;2022-08-01T03:08:40;11.33;;;4.33;;
5867;SDS011;2960;49.142;7.768;2022-08-01T03:11:08;11.50;;;4.63;;
5867;SDS011;2960;49.142;7.768;2022-08-01T03:13:37;11.80;;;4.63;;
5867;SDS011;2960;49.142;7.768;2022-08-01T03:16:05;11.00;;;4.33;;
5867;SDS011;2960;49.142;7.768;2022-08-01T03:18:34;11.10;;;4.13;;
5867;SDS011;2960;49.142;7.768;2022-08-01T03:21:03;11.20;;;4.27;;
5867;SDS011;2960;49.142;7.768;2022-08-01T03:23:32;11.40;;;4.27;;
5867;SDS011;2960;49.142;7.768;2022-08-01T03:26:01;11.50;;;4.57;;
5867;SDS011;2960;49.142;7.768;2022-08-01T03:28:29;11.20;;;4.50;;
5867;SDS011;2960;49.142;7.768;2022-08-01T03:30:57;11.30;;;4.33;;
5867;SDS011;2960;49.142;7.768;2022-08-01T03:33:25;11.57;;;4.40;;
5867;SDS011;2960;49.142;7.768;2022-08-01T03:35:54;11.60;;;4.50;;
5867;SDS011;2960;49.142;7.768;2022-08-01T03:38:23;11.57;;;4.10;;
5867;SDS011;2960;49.142;7.768;2022-08-01T03:40:53;11.07;;;4.00;;
5867;SDS011;2960;49.142;7.768;2022-08-01T03:43:26;11.47;;;4.23;;
5867;SDS011;2960;49.142;7.768;2022-08-01T03:46:01;11.00;;;3.83;;
5867;SDS011;2960;49.142;7.768;2022-08-01T03:48:35;11.20;;;4.10;;
5867;SDS011;2960;49.142;7.768;2022-08-01T03:51:09;11.20;;;4.10;;
5867;SDS011;2960;49.142;7.768;2022-08-01T03:53:37;11.00;;;3.80;;
5867;SDS011;2960;49.142;7.768;2022-08-01T03:56:08;11.60;;;4.37;;
5867;SDS011;2960;49.142;7.768;2022-08-01T03:58:37;11.20;;;4.20;;
5867;SDS011;2960;49.142;7.768;2022-08-01T04:01:05;10.90;;;3.90;;
5867;SDS011;2960;49.142;7.768;2022-08-01T04:03:34;11.40;;;4.13;;
5867;SDS011;2960;49.142;7.768;2022-08-01T04:06:03;11.30;;;4.10;;
5867;SDS011;2960;49.142;7.768;2022-08-01T04:08:37;11.50;;;4.20;;
5867;SDS011;2960;49.142;7.768;2022-08-01T04:11:07;11.03;;;4.13;;
5867;SDS011;2960;49.142;7.768;2022-08-01T04:13:35;12.30;;;4.03;;
5867;SDS011;2960;49.142;7.768;2022-08-01T04:16:02;10.93;;;4.10;;
5867;SDS011;2960;49.142;7.768;2022-08-01T04:18:30;11.00;;;3.87;;
5867;SDS011;2960;49.142;7.768;2022-08-01T04:20:57;11.10;;;3.93;;
5867;SDS011;2960;49.142;7.768;2022-08-01T04:23:24;11.00;;;3.80;;
5867;SDS011;2960;49.142;7.768;2022-08-01T04:25:55;10.77;;;3.83;;
5867;SDS011;2960;49.142;7.768;2022-08-01T04:28:23;11.83;;;3.87;;
5867;SDS011;2960;49.142;7.768;2022-08-01T04:30:52;11.27;;;4.00;;
5867;SDS011;2960;49.142;7.768;2022-08-01T04:33:21;11.00;;;3.80;;
5867;SDS011;2960;49.142;7.768;2022-08-01T04:35:50;11.17;;;4.30;;
5867;SDS011;2960;49.142;7.768;2022-08-01T04:38:19;10.73;;;3.80;;
5867;SDS011;2960;49.142;7.768;2022-08-01T04:40:48;11.40;;;4.10;;
5867;SDS011;2960;49.142;7.768;2022-08-01T04:43:18;11.13;;;4.03;;
5867;SDS011;2960;49.142;7.768;2022-08-01T04:45:46;10.77;;;3.63;;
5867;SDS011;2960;49.142;7.768;2022-08-01T04:48:15;10.80;;;3.77;;
5867;SDS011;2960;49.142;7.768;2022-08-01T04:50:45;10.80;;;3.67;;
5867;SDS011;2960;49.142;7.768;2022-08-01T04:53:13;11.03;;;4.10;;
5867;SDS011;2960;49.142;7.768;2022-08-01T04:55:42;11.50;;;3.90;;
5867;SDS011;2960;49.142;7.768;2022-08-01T04:58:10;10.97;;;3.93;;
5867;SDS011;2960;49.142;7.768;2022-08-01T05:00:39;11.20;;;4.00;;
5867;SDS011;2960;49.142;7.768;2022-08-01T05:03:06;11.00;;;4.00;;
5867;SDS011;2960;49.142;7.768;2022-08-01T05:05:33;11.10;;;4.10;;
5867;SDS011;2960;49.142;7.768;2022-08-01T05:08:01;11.13;;;4.10;;
5867;SDS011;2960;49.142;7.768;2022-08-01T05:10:28;11.13;;;4.07;;
5867;SDS011;2960;49.142;7.768;2022-08-01T05:12:56;11.10;;;4.10;;
5867;SDS011;2960;49.142;7.768;2022-08-01T05:15:23;11.10;;;3.67;;
5867;SDS011;2960;49.142;7.768;2022-08-01T05:17:51;10.73;;;3.60;;
5867;SDS011;2960;49.142;7.768;2022-08-01T05:20:20;10.90;;;3.80;;
5867;SDS011;2960;49.142;7.768;2022-08-01T05:22:47;11.03;;;3.60;;
5867;SDS011;2960;49.142;7.768;2022-08-01T05:25:14;11.20;;;3.80;;
5867;SDS011;2960;49.142;7.768;2022-08-01T05:27:41;11.60;;;3.50;;
5867;SDS011;2960;49.142;7.768;2022-08-01T05:30:09;11.00;;;3.60;;
5867;SDS011;2960;49.142;7.768;2022-08-01T05:32:37;10.90;;;3.20;;
5867;SDS011;2960;49.142;7.768;2022-08-01T05:35:06;11.20;;;4.07;;
5867;SDS011;2960;49.142;7.768;2022-08-01T05:37:34;10.73;;;3.60;;
5867;SDS011;2960;49.142;7.768;2022-08-01T05:40:02;10.80;;;3.70;;
5867;SDS011;2960;49.142;7.768;2022-08-01T05:42:30;10.57;;;3.80;;
5867;SDS011;2960;49.142;7.768;2022-08-01T05:44:57;15.67;;;4.20;;
5867;SDS011;2960;49.142;7.768;2022-08-01T05:47:25;12.00;;;4.30;;
5867;SDS011;2960;49.142;7.768;2022-08-01T05:49:52;10.93;;;4.00;;
5867;SDS011;2960;49.142;7.768;2022-08-01T05:52:20;11.60;;;4.30;;
5867;SDS011;2960;49.142;7.768;2022-08-01T05:54:48;10.70;;;3.97;;
5867;SDS011;2960;49.142;7.768;2022-08-01T05:57:15;11.20;;;4.27;;
5867;SDS011;2960;49.142;7.768;2022-08-01T05:59:42;10.77;;;3.90;;
5867;SDS011;2960;49.142;7.768;2022-08-01T06:02:09;11.10;;;3.83;;
5867;SDS011;2960;49.142;7.768;2022-08-01T06:04:36;11.43;;;4.20;;
5867;SDS011;2960;49.142;7.768;2022-08-01T06:07:03;11.43;;;3.93;;
5867;SDS011;2960;49.142;7.768;2022-08-01T06:09:32;11.37;;;4.00;;
5867;SDS011;2960;49.142;7.768;2022-08-01T06:11:59;11.47;;;4.57;;
5867;SDS011;2960;49.142;7.768;2022-08-01T06:14:26;11.37;;;4.50;;
5867;SDS011;2960;49.142;7.768;2022-08-01T06:16:53;11.10;;;3.80;;
5867;SDS011;2960;49.142;7.768;2022-08-01T06:19:20;11.03;;;4.03;;
5867;SDS011;2960;49.142;7.768;2022-08-01T06:21:47;11.30;;;4.10;;
5867;SDS011;2960;49.142;7.768;2022-08-01T06:24:15;11.20;;;4.07;;
5867;SDS011;2960;49.142;7.768;2022-08-01T06:26:43;11.70;;;4.30;;
5867;SDS011;2960;49.142;7.768;2022-08-01T06:29:10;11.10;;;4.20;;
5867;SDS011;2960;49.142;7.768;2022-08-01T06:31:38;11.20;;;4.33;;
5867;SDS011;2960;49.142;7.768;2022-08-01T06:34:05;11.30;;;4.00;;
5867;SDS011;2960;49.142;7.768;2022-08-01T06:36:32;10.57;;;3.70;;
5867;SDS011;2960;49.142;7.768;2022-08-01T06:38:59;11.00;;;4.10;;
5867;SDS011;2960;49.142;7.768;2022-08-01T06:41:26;10.70;;;3.63;;
5867;SDS011;2960;49.142;7.768;2022-08-01T06:43:55;10.90;;;4.07;;
5867;SDS011;2960;49.142;7.768;2022-08-01T06:46:22;10.73;;;3.80;;
5867;SDS011;2960;49.142;7.768;2022-08-01T06:48:49;10.90;;;4.00;;
5867;SDS011;2960;49.142;7.768;2022-08-01T06:51:16;10.50;;;3.77;;
5867;SDS011;2960;49.142;7.768;2022-08-01T06:53:45;11.37;;;4.17;;
5867;SDS011;2960;49.142;7.768;2022-08-01T06:56:12;11.20;;;4.10;;
5867;SDS011;2960;49.142;7.768;2022-08-01T06:58:39;11.03;;;4.20;;
5867;SDS011;2960;49.142;7.768;2022-08-01T07:01:08;11.00;;;3.80;;
5867;SDS011;2960;49.142;7.768;2022-08-01T07:03:36;10.77;;;3.60;;
5867;SDS011;2960;49.142;7.768;2022-08-01T07:06:03;10.60;;;3.57;;
5867;SDS011;2960;49.142;7.768;2022-08-01T07:08:31;10.60;;;3.60;;
5867;SDS011;2960;49.142;7.768;2022-08-01T07:10:58;11.00;;;4.00;;
5867;SDS011;2960;49.142;7.768;2022-08-01T07:13:25;10.67;;;3.73;;
5867;SDS011;2960;49.142;7.768;2022-08-01T07:15:53;10.70;;;3.70;;
5867;SDS011;2960;49.142;7.768;2022-08-01T07:18:21;11.30;;;4.13;;
5867;SDS011;2960;49.142;7.768;2022-08-01T07:20:49;11.20;;;4.07;;
5867;SDS011;2960;49.142;7.768;2022-08-01T07:23:19;11.47;;;3.70;;
5867;SDS011;2960;49.142;7.768;2022-08-01T07:25:46;11.13;;;3.83;;
5867;SDS011;2960;49.142;7.768;2022-08-01T07:28:15;11.10;;;3.73;;
5867;SDS011;2960;49.142;7.768;2022-08-01T07:30:43;10.90;;;3.97;;
5867;SDS011;2960;49.142;7.768;2022-08-01T07:33:10;10.90;;;3.90;;
5867;SDS011;2960;49.142;7.768;2022-08-01T07:35:38;11.10;;;3.73;;
5867;SDS011;2960;49.142;7.768;2022-08-01T07:38:06;10.70;;;3.87;;
5867;SDS011;2960;49.142;7.768;2022-08-01T07:40:33;10.50;;;3.60;;
5867;SDS011;2960;49.142;7.768;2022-08-01T07:43:01;11.53;;;3.60;;
5867;SDS011;2960;49.142;7.768;2022-08-01T07:45:28;11.00;;;3.90;;
5867;SDS011;2960;49.142;7.768;2022-08-01T07:47:56;10.70;;;3.80;;
5867;SDS011;2960;49.142;7.768;2022-08-01T07:50:29;10.70;;;3.70;;
5867;SDS011;2960;49.142;7.768;2022-08-01T07:52:58;10.57;;;3.83;;
5867;SDS011;2960;49.142;7.768;2022-08-01T07:55:26;10.57;;;3.80;;
5867;SDS011;2960;49.142;7.768;2022-08-01T07:57:53;10.90;;;3.90;;
5867;SDS011;2960;49.142;7.768;2022-08-01T08:00:20;10.80;;;3.90;;
5867;SDS011;2960;49.142;7.768;2022-08-01T08:02:47;11.20;;;3.87;;
5867;SDS011;2960;49.142;7.768;2022-08-01T08:05:14;11.03;;;3.97;;
5867;SDS011;2960;49.142;7.768;2022-08-01T08:07:42;10.90;;;3.80;;
5867;SDS011;2960;49.142;7.768;2022-08-01T08:10:10;10.83;;;3.90;;
5867;SDS011;2960;49.142;7.768;2022-08-01T08:12:37;10.57;;;3.53;;
5867;SDS011;2960;49.142;7.768;2022-08-01T08:15:05;10.40;;;3.43;;
5867;SDS011;2960;49.142;7.768;2022-08-01T08:17:33;10.40;;;3.63;;
5867;SDS011;2960;49.142;7.768;2022-08-01T08:20:00;10.43;;;3.70;;
5867;SDS011;2960;49.142;7.768;2022-08-01T08:22:28;10.40;;;3.67;;
5867;SDS011;2960;49.142;7.768;2022-08-01T08:24:55;10.80;;;3.87;;
5867;SDS011;2960;49.142;7.768;2022-08-01T08:27:24;10.77;;;3.80;;
5867;SDS011;2960;49.142;7.768;2022-08-01T08:29:51;10.57;;;3.70;;
5867;SDS011;2960;49.142;7.768;2022-08-01T08:32:18;10.87;;;3.53;;
5867;SDS011;2960;49.142;7.768;2022-08-01T08:34:45;10.37;;;3.60;;
5867;SDS011;2960;49.142;7.768;2022-08-01T08:37:13;10.57;;;3.60;;
5867;SDS011;2960;49.142;7.768;2022-08-01T08:39:40;10.70;;;3.80;;
5867;SDS011;2960;49.142;7.768;2022-08-01T08:42:07;11.20;;;3.70;;
5867;SDS011;2960;49.142;7.768;2022-08-01T08:44:36;10.90;;;4.00;;
5867;SDS011;2960;49.142;7.768;2022-08-01T08:47:05;11.50;;;4.23;;
5867;SDS011;2960;49.142;7.768;2022-08-01T08:49:33;11.63;;;3.80;;
5867;SDS011;2960;49.142;7.768;2022-08-01T08:52:01;10.43;;;3.57;;
5867;SDS011;2960;49.142;7.768;2022-08-01T08:54:31;10.43;;;3.57;;
5867;SDS011;2960;49.142;7.768;2022-08-01T08:56:59;10.70;;;3.90;;
5867;SDS011;2960;49.142;7.768;2022-08-01T08:59:27;10.87;;;4.00;;
5867;SDS011;2960;49.142;7.768;2022-08-01T09:01:57;10.37;;;3.43;;
5867;SDS011;2960;49.142;7.768;2022-08-01T09:04:24;10.87;;;4.00;;
5867;SDS011;2960;49.142;7.768;2022-08-01T09:06:52;10.67;;;3.70;;
5867;SDS011;2960;49.142;7.768;2022-08-01T09:09:20;13.00;;;4.10;;
5867;SDS011;2960;49.142;7.768;2022-08-01T09:11:48;11.60;;;4.23;;
5867;SDS011;2960;49.142;7.768;2022-08-01T09:14:16;10.60;;;3.63;;
5867;SDS011;2960;49.142;7.768;2022-08-01T09:17:00;12.10;;;3.97;;
5867;SDS011;2960;49.142;7.768;2022-08-01T09:19:34;10.67;;;3.90;;
5867;SDS011;2960;49.142;7.768;2022-08-01T09:22:05;10.80;;;4.00;;
5867;SDS011;2960;49.142;7.768;2022-08-01T09:24:37;10.90;;;3.90;;
5867;SDS011;2960;49.142;7.768;2022-08-01T09:27:14;10.90;;;3.83;;
5867;SDS011;2960;49.142;7.768;2022-08-01T09:29:44;10.50;;;3.80;;
5867;SDS011;2960;49.142;7.768;2022-08-01T09:32:12;10.80;;;4.00;;
5867;SDS011;2960;49.142;7.768;2022-08-01T09:34:39;10.60;;;3.80;;
5867;SDS011;2960;49.142;7.768;2022-08-01T09:37:06;10.60;;;3.60;;
5867;SDS011;2960;49.142;7.768;2022-08-01T09:39:34;11.63;;;4.00;;
5867;SDS011;2960;49.142;7.768;2022-08-01T09:42:18;10.70;;;4.00;;
5867;SDS011;2960;49.142;7.768;2022-08-01T09:44:48;10.93;;;4.00;;
5867;SDS011;2960;49.142;7.768;2022-08-01T09:47:19;11.00;;;3.70;;
5867;SDS011;2960;49.142;7.768;2022-08-01T09:49:52;10.60;;;3.70;;
5867;SDS011;2960;49.142;7.768;2022-08-01T09:52:21;10.47;;;3.70;;
5867;SDS011;2960;49.142;7.768;2022-08-01T09:54:52;11.17;;;4.20;;
5867;SDS011;2960;49.142;7.768;2022-08-01T09:57:21;10.83;;;3.90;;
5867;SDS011;2960;49.142;7.768;2022-08-01T09:59:49;10.93;;;4.10;;
5867;SDS011;2960;49.142;7.768;2022-08-01T10:02:31;10.77;;;3.83;;
5867;SDS011;2960;49.142;7.768;2022-08-01T10:05:01;10.60;;;3.87;;
5867;SDS011;2960;49.142;7.768;2022-08-01T10:07:30;10.47;;;3.70;;
5867;SDS011;2960;49.142;7.768;2022-08-01T10:10:01;10.77;;;3.73;;
5867;SDS011;2960;49.142;7.768;2022-08-01T10:12:36;10.93;;;4.10;;
5867;SDS011;2960;49.142;7.768;2022-08-01T10:15:05;10.50;;;3.80;;
5867;SDS011;2960;49.142;7.768;2022-08-01T10:17:36;10.80;;;4.30;;
5867;SDS011;2960;49.142;7.768;2022-08-01T10:20:06;12.23;;;4.13;;
5867;SDS011;2960;49.142;7.768;2022-08-01T10:22:36;11.60;;;4.10;;
5867;SDS011;2960;49.142;7.768;2022-08-01T10:25:05;11.10;;;4.20;;
5867;SDS011;2960;49.142;7.768;2022-08-01T10:27:33;10.90;;;4.07;;
5867;SDS011;2960;49.142;7.768;2022-08-01T10:30:03;12.40;;;4.07;;
5867;SDS011;2960;49.142;7.768;2022-08-01T10:32:33;10.50;;;3.73;;
5867;SDS011;2960;49.142;7.768;2022-08-01T10:35:02;10.50;;;3.97;;
5867;SDS011;2960;49.142;7.768;2022-08-01T10:37:32;10.43;;;3.90;;
5867;SDS011;2960;49.142;7.768;2022-08-01T10:40:00;10.97;;;4.10;;
5867;SDS011;2960;49.142;7.768;2022-08-01T10:42:30;11.90;;;3.93;;
5867;SDS011;2960;49.142;7.768;2022-08-01T10:44:57;10.90;;;3.70;;
5867;SDS011;2960;49.142;7.768;2022-08-01T10:47:27;10.63;;;3.80;;
5867;SDS011;2960;49.142;7.768;2022-08-01T10:50:07;11.67;;;3.93;;
5867;SDS011;2960;49.142;7.768;2022-08-01T10:55:45;10.93;;;3.90;;
5867;SDS011;2960;49.142;7.768;2022-08-01T10:58:13;10.33;;;3.70;;
5867;SDS011;2960;49.142;7.768;2022-08-01T11:00:46;10.70;;;3.87;;
5867;SDS011;2960;49.142;7.768;2022-08-01T11:03:15;10.77;;;3.97;;
5867;SDS011;2960;49.142;7.768;2022-08-01T11:06:00;10.80;;;3.93;;
5867;SDS011;2960;49.142;7.768;2022-08-01T11:08:29;10.87;;;4.00;;
5867;SDS011;2960;49.142;7.768;2022-08-01T11:11:01;10.53;;;3.50;;
5867;SDS011;2960;49.142;7.768;2022-08-01T11:16:32;10.80;;;4.07;;
5867;SDS011;2960;49.142;7.768;2022-08-01T11:19:02;10.70;;;3.93;;
5867;SDS011;2960;49.142;7.768;2022-08-01T11:27:27;10.63;;;4.07;;
5867;SDS011;2960;49.142;7.768;2022-08-01T11:32:51;10.77;;;3.93;;
5867;SDS011;2960;49.142;7.768;2022-08-01T11:35:23;10.60;;;3.90;;
5867;SDS011;2960;49.142;7.768;2022-08-01T11:37:52;10.60;;;3.90;;
5867;SDS011;2960;49.142;7.768;2022-08-01T11:40:22;10.40;;;3.80;;
5867;SDS011;2960;49.142;7.768;2022-08-01T11:42:51;11.40;;;4.20;;
5867;SDS011;2960;49.142;7.768;2022-08-01T11:45:47;10.57;;;3.80;;
5867;SDS011;2960;49.142;7.768;2022-08-01T11:48:17;10.50;;;3.73;;
5867;SDS011;2960;49.142;7.768;2022-08-01T11:50:46;10.47;;;3.80;;
5867;SDS011;2960;49.142;7.768;2022-08-01T11:53:16;11.40;;;3.97;;
5867;SDS011;2960;49.142;7.768;2022-08-01T11:55:45;10.70;;;3.90;;
5867;SDS011;2960;49.142;7.768;2022-08-01T11:58:14;10.30;;;3.80;;
5867;SDS011;2960;49.142;7.768;2022-08-01T12:00:49;10.50;;;3.80;;
5867;SDS011;2960;49.142;7.768;2022-08-01T12:03:22;10.70;;;3.93;;
5867;SDS011;2960;49.142;7.768;2022-08-01T12:05:53;10.53;;;3.80;;
5867;SDS011;2960;49.142;7.768;2022-08-01T12:08:25;10.30;;;3.60;;
5867;SDS011;2960;49.142;7.768;2022-08-01T12:10:52;10.40;;;3.70;;
5867;SDS011;2960;49.142;7.768;2022-08-01T12:13:20;10.27;;;3.60;;
5867;SDS011;2960;49.142;7.768;2022-08-01T12:15:47;10.67;;;3.53;;
5867;SDS011;2960;49.142;7.768;2022-08-01T12:18:16;10.43;;;3.80;;
5867;SDS011;2960;49.142;7.768;2022-08-01T12:20:44;10.33;;;3.90;;
5867;SDS011;2960;49.142;7.768;2022-08-01T12:23:15;11.73;;;4.07;;
5867;SDS011;2960;49.142;7.768;2022-08-01T12:25:43;10.33;;;3.60;;
5867;SDS011;2960;49.142;7.768;2022-08-01T12:28:16;10.80;;;3.40;;
5867;SDS011;2960;49.142;7.768;2022-08-01T12:30:43;12.53;;;3.87;;
5867;SDS011;2960;49.142;7.768;2022-08-01T12:33:16;10.17;;;3.50;;
5867;SDS011;2960;49.142;7.768;2022-08-01T12:35:45;10.70;;;3.80;;
5867;SDS011;2960;49.142;7.768;2022-08-01T12:38:15;10.40;;;3.67;;
5867;SDS011;2960;49.142;7.768;2022-08-01T12:40:44;10.40;;;3.70;;
5867;SDS011;2960;49.142;7.768;2022-08-01T12:43:15;10.07;;;3.30;;
5867;SDS011;2960;49.142;7.768;2022-08-01T12:45:45;10.40;;;3.53;;
5867;SDS011;2960;49.142;7.768;2022-08-01T12:48:15;10.20;;;3.43;;
5867;SDS011;2960;49.142;7.768;2022-08-01T12:50:45;10.23;;;3.47;;
5867;SDS011;2960;49.142;7.768;2022-08-01T12:53:15;11.83;;;3.50;;
5867;SDS011;2960;49.142;7.768;2022-08-01T12:55:43;10.00;;;3.23;;
5867;SDS011;2960;49.142;7.768;2022-08-01T12:58:14;10.30;;;3.50;;
5867;SDS011;2960;49.142;7.768;2022-08-01T13:00:43;10.27;;;3.50;;
5867;SDS011;2960;49.142;7.768;2022-08-01T13:03:12;10.60;;;3.60;;
5867;SDS011;2960;49.142;7.768;2022-08-01T13:05:42;10.40;;;3.60;;
5867;SDS011;2960;49.142;7.768;2022-08-01T13:08:11;11.13;;;3.80;;
5867;SDS011;2960;49.142;7.768;2022-08-01T13:10:40;11.30;;;3.63;;
5867;SDS011;2960;49.142;7.768;2022-08-01T13:13:08;10.40;;;3.67;;
5867;SDS011;2960;49.142;7.768;2022-08-01T13:15:37;10.30;;;3.63;;
5867;SDS011;2960;49.142;7.768;2022-08-01T13:21:07;10.90;;;3.80;;
5867;SDS011;2960;49.142;7.768;2022-08-01T13:23:36;10.80;;;4.10;;
5867;SDS011;2960;49.142;7.768;2022-08-01T13:26:05;10.80;;;3.90;;
5867;SDS011;2960;49.142;7.768;2022-08-01T13:28:33;10.57;;;3.60;;
5867;SDS011;2960;49.142;7.768;2022-08-01T13:31:02;10.27;;;3.50;;
5867;SDS011;2960;49.142;7.768;2022-08-01T13:33:39;10.70;;;3.40;;
5867;SDS011;2960;49.142;7.768;2022-08-01T13:36:08;10.73;;;3.70;;
5867;SDS011;2960;49.142;7.768;2022-08-01T13:38:35;11.10;;;3.80;;
5867;SDS011;2960;49.142;7.768;2022-08-01T13:41:36;10.87;;;3.77;;
5867;SDS011;2960;49.142;7.768;2022-08-01T13:44:03;11.57;;;3.90;;
5867;SDS011;2960;49.142;7.768;2022-08-01T13:46:33;10.40;;;3.77;;
5867;SDS011;2960;49.142;7.768;2022-08-01T13:49:01;11.00;;;3.90;;
5867;SDS011;2960;49.142;7.768;2022-08-01T13:51:28;10.83;;;3.73;;
5867;SDS011;2960;49.142;7.768;2022-08-01T13:53:55;10.57;;;3.60;;
5867;SDS011;2960;49.142;7.768;2022-08-01T13:56:22;10.40;;;3.47;;
5867;SDS011;2960;49.142;7.768;2022-08-01T13:58:53;10.80;;;3.73;;
5867;SDS011;2960;49.142;7.768;2022-08-01T14:01:21;10.50;;;3.80;;
5867;SDS011;2960;49.142;7.768;2022-08-01T14:03:52;10.50;;;3.60;;
5867;SDS011;2960;49.142;7.768;2022-08-01T14:06:19;11.50;;;3.70;;
5867;SDS011;2960;49.142;7.768;2022-08-01T14:08:47;10.17;;;3.40;;
5867;SDS011;2960;49.142;7.768;2022-08-01T14:11:15;10.50;;;3.30;;
5867;SDS011;2960;49.142;7.768;2022-08-01T14:13:42;10.30;;;3.70;;
5867;SDS011;2960;49.142;7.768;2022-08-01T14:16:11;10.30;;;3.33;;
5867;SDS011;2960;49.142;7.768;2022-08-01T14:18:38;10.10;;;3.40;;
5867;SDS011;2960;49.142;7.768;2022-08-01T14:21:05;10.40;;;3.40;;
5867;SDS011;2960;49.142;7.768;2022-08-01T14:23:32;10.53;;;3.50;;
5867;SDS011;2960;49.142;7.768;2022-08-01T14:25:59;10.30;;;3.50;;
5867;SDS011;2960;49.142;7.768;2022-08-01T14:28:27;10.30;;;3.70;;
5867;SDS011;2960;49.142;7.768;2022-08-01T14:30:55;10.23;;;3.37;;
5867;SDS011;2960;49.142;7.768;2022-08-01T14:33:25;10.40;;;3.40;;
5867;SDS011;2960;49.142;7.768;2022-08-01T14:35:52;10.37;;;3.67;;
5867;SDS011;2960;49.142;7.768;2022-08-01T14:38:20;10.20;;;3.47;;
5867;SDS011;2960;49.142;7.768;2022-08-01T14:40:47;10.77;;;3.60;;
5867;SDS011;2960;49.142;7.768;2022-08-01T14:43:16;10.27;;;3.03;;
5867;SDS011;2960;49.142;7.768;2022-08-01T14:45:43;10.23;;;3.47;;
5867;SDS011;2960;49.142;7.768;2022-08-01T14:48:14;10.50;;;3.50;;
5867;SDS011;2960;49.142;7.768;2022-08-01T14:50:42;10.10;;;3.30;;
5867;SDS011;2960;49.142;7.768;2022-08-01T14:53:10;10.50;;;3.50;;
5867;SDS011;2960;49.142;7.768;2022-08-01T14:55:37;11.20;;;3.60;;
5867;SDS011;2960;49.142;7.768;2022-08-01T14:58:05;10.60;;;3.50;;
5867;SDS011;2960;49.142;7.768;2022-08-01T15:00:32;10.40;;;3.30;;
5867;SDS011;2960;49.142;7.768;2022-08-01T15:02:59;10.47;;;3.60;;
5867;SDS011;2960;49.142;7.768;2022-08-01T15:05:26;10.30;;;3.43;;
5867;SDS011;2960;49.142;7.768;2022-08-01T15:07:56;10.33;;;3.50;;
5867;SDS011;2960;49.142;7.768;2022-08-01T15:10:24;10.10;;;3.33;;
5867;SDS011;2960;49.142;7.768;2022-08-01T15:12:51;10.07;;;3.27;;
5867;SDS011;2960;49.142;7.768;2022-08-01T15:15:19;10.23;;;3.40;;
5867;SDS011;2960;49.142;7.768;2022-08-01T15:17:46;10.23;;;3.40;;
5867;SDS011;2960;49.142;7.768;2022-08-01T15:20:13;10.40;;;3.60;;
5867;SDS011;2960;49.142;7.768;2022-08-01T15:22:40;11.10;;;3.50;;
5867;SDS011;2960;49.142;7.768;2022-08-01T15:25:09;10.27;;;3.50;;
5867;SDS011;2960;49.142;7.768;2022-08-01T15:27:37;10.60;;;3.70;;
5867;SDS011;2960;49.142;7.768;2022-08-01T15:30:04;10.20;;;3.50;;
5867;SDS011;2960;49.142;7.768;2022-08-01T15:32:32;10.80;;;3.80;;